sensor_id;sensor_type;location;lat;lon;timestamp;temperature;humidity
43151;DHT22;28755;51.478;5.702;2022-12-18T00:01:26;-4.00;99.90
43151;DHT22;28755;51.478;5.702;2022-12-18T00:03:53;-4.10;99.90
43151;DHT22;28755;51.478;5.702;2022-12-18T00:06:20;-4.10;99.90
43151;DHT22;28755;51.478;5.702;2022-12-18T00:08:46;-4.10;99.90
43151;DHT22;28755;51.478;5.702;2022-12-18T00:11:15;-4.20;99.90
43151;DHT22;28755;51.478;5.702;2022-12-18T00:13:41;-4.10;99.90
43151;DHT22;28755;51.478;5.702;2022-12-18T00:16:10;-4.10;99.90
43151;DHT22;28755;51.478;5.702;2022-12-18T00:18:35;-4.20;99.90
43151;DHT22;28755;51.478;5.702;2022-12-18T00:21:03;-4.20;99.90
43151;DHT22;28755;51.478;5.702;2022-12-18T00:23:30;-4.20;99.90
43151;DHT22;28755;51.478;5.702;2022-12-18T00:26:03;-4.20;99.90
43151;DHT22;28755;51.478;5.702;2022-12-18T00:28:29;-4.30;99.90
43151;DHT22;28755;51.478;5.702;2022-12-18T00:31:22;-4.20;99.90
43151;DHT22;28755;51.478;5.702;2022-12-18T00:33:48;-4.30;99.90
43151;DHT22;28755;51.478;5.702;2022-12-18T00:36:16;-4.30;99.90
43151;DHT22;28755;51.478;5.702;2022-12-18T00:38:43;-4.30;99.90
43151;DHT22;28755;51.478;5.702;2022-12-18T00:41:10;-4.30;99.90
43151;DHT22;28755;51.478;5.702;2022-12-18T00:43:37;-4.40;99.90
43151;DHT22;28755;51.478;5.702;2022-12-18T00:46:03;-4.40;99.90
43151;DHT22;28755;51.478;5.702;2022-12-18T00:48:29;-4.50;99.90
43151;DHT22;28755;51.478;5.702;2022-12-18T00:50:54;-4.40;99.90
43151;DHT22;28755;51.478;5.702;2022-12-18T00:53:20;-4.40;99.90
43151;DHT22;28755;51.478;5.702;2022-12-18T00:55:47;-4.50;99.90
43151;DHT22;28755;51.478;5.702;2022-12-18T00:58:14;-4.40;99.90
43151;DHT22;28755;51.478;5.702;2022-12-18T01:00:40;-4.50;99.90
43151;DHT22;28755;51.478;5.702;2022-12-18T01:03:06;-4.50;99.90
43151;DHT22;28755;51.478;5.702;2022-12-18T01:05:32;-4.50;99.90
43151;DHT22;28755;51.478;5.702;2022-12-18T01:07:57;-4.60;99.90
43151;DHT22;28755;51.478;5.702;2022-12-18T01:10:24;-4.60;99.90
43151;DHT22;28755;51.478;5.702;2022-12-18T01:12:50;-4.60;99.90
43151;DHT22;28755;51.478;5.702;2022-12-18T01:15:17;-4.60;99.90
43151;DHT22;28755;51.478;5.702;2022-12-18T01:17:43;-4.60;99.90
43151;DHT22;28755;51.478;5.702;2022-12-18T01:20:10;-4.60;99.90
43151;DHT22;28755;51.478;5.702;2022-12-18T01:22:36;-4.60;99.90
43151;DHT22;28755;51.478;5.702;2022-12-18T01:25:03;-4.60;99.90
43151;DHT22;28755;51.478;5.702;2022-12-18T01:27:29;-4.70;99.90
43151;DHT22;28755;51.478;5.702;2022-12-18T01:29:55;-4.70;99.90
43151;DHT22;28755;51.478;5.702;2022-12-18T01:32:21;-4.70;99.90
43151;DHT22;28755;51.478;5.702;2022-12-18T01:34:47;-4.70;99.90
43151;DHT22;28755;51.478;5.702;2022-12-18T01:37:13;-4.70;99.90
43151;DHT22;28755;51.478;5.702;2022-12-18T01:39:38;-4.70;99.90
43151;DHT22;28755;51.478;5.702;2022-12-18T01:42:10;-4.80;99.90
43151;DHT22;28755;51.478;5.702;2022-12-18T01:47:22;-4.80;99.90
43151;DHT22;28755;51.478;5.702;2022-12-18T01:49:49;-4.80;99.90
43151;DHT22;28755;51.478;5.702;2022-12-18T01:52:15;-4.90;99.90
43151;DHT22;28755;51.478;5.702;2022-12-18T01:54:42;-4.90;99.90
43151;DHT22;28755;51.478;5.702;2022-12-18T01:57:08;-4.90;99.90
43151;DHT22;28755;51.478;5.702;2022-12-18T01:59:35;-4.90;99.90
43151;DHT22;28755;51.478;5.702;2022-12-18T02:02:02;-4.90;99.90
43151;DHT22;28755;51.478;5.702;2022-12-18T02:04:28;-4.90;99.90
43151;DHT22;28755;51.478;5.702;2022-12-18T02:07:10;-4.90;99.90
43151;DHT22;28755;51.478;5.702;2022-12-18T02:09:46;-5.00;99.90
43151;DHT22;28755;51.478;5.702;2022-12-18T02:12:18;-4.90;99.90
43151;DHT22;28755;51.478;5.702;2022-12-18T02:17:23;-4.90;99.90
43151;DHT22;28755;51.478;5.702;2022-12-18T02:25:40;-5.00;99.90
43151;DHT22;28755;51.478;5.702;2022-12-18T02:28:11;-5.00;99.90
43151;DHT22;28755;51.478;5.702;2022-12-18T02:30:39;-5.10;99.90
43151;DHT22;28755;51.478;5.702;2022-12-18T02:33:08;-5.10;99.90
43151;DHT22;28755;51.478;5.702;2022-12-18T02:35:36;-5.10;99.90
43151;DHT22;28755;51.478;5.702;2022-12-18T02:38:04;-5.10;99.90
43151;DHT22;28755;51.478;5.702;2022-12-18T02:40:30;-5.10;99.90
43151;DHT22;28755;51.478;5.702;2022-12-18T02:43:03;-5.10;99.90
43151;DHT22;28755;51.478;5.702;2022-12-18T02:45:32;-5.10;99.90
43151;DHT22;28755;51.478;5.702;2022-12-18T02:47:57;-5.10;99.90
43151;DHT22;28755;51.478;5.702;2022-12-18T02:50:43;-5.00;99.90
43151;DHT22;28755;51.478;5.702;2022-12-18T02:53:29;-5.00;99.90
43151;DHT22;28755;51.478;5.702;2022-12-18T02:56:13;-5.10;99.90
43151;DHT22;28755;51.478;5.702;2022-12-18T02:58:56;-5.00;99.90
43151;DHT22;28755;51.478;5.702;2022-12-18T03:01:31;-5.00;99.90
43151;DHT22;28755;51.478;5.702;2022-12-18T03:04:04;-5.10;99.90
43151;DHT22;28755;51.478;5.702;2022-12-18T03:06:40;-5.10;99.90
43151;DHT22;28755;51.478;5.702;2022-12-18T03:09:17;-5.00;99.90
43151;DHT22;28755;51.478;5.702;2022-12-18T03:11:49;-5.00;99.90
43151;DHT22;28755;51.478;5.702;2022-12-18T03:14:38;-5.10;99.90
43151;DHT22;28755;51.478;5.702;2022-12-18T03:17:09;-5.10;99.90
43151;DHT22;28755;51.478;5.702;2022-12-18T03:19:35;-5.00;99.90
43151;DHT22;28755;51.478;5.702;2022-12-18T03:22:06;-5.10;99.90
43151;DHT22;28755;51.478;5.702;2022-12-18T03:24:33;-4.90;99.90
43151;DHT22;28755;51.478;5.702;2022-12-18T03:27:06;-5.00;99.90
43151;DHT22;28755;51.478;5.702;2022-12-18T03:29:48;-4.90;99.90
43151;DHT22;28755;51.478;5.702;2022-12-18T03:32:24;-4.90;99.90
43151;DHT22;28755;51.478;5.702;2022-12-18T03:34:53;-5.00;99.90
43151;DHT22;28755;51.478;5.702;2022-12-18T03:37:22;-4.90;99.90
43151;DHT22;28755;51.478;5.702;2022-12-18T03:39:47;-5.00;99.90
43151;DHT22;28755;51.478;5.702;2022-12-18T03:42:19;-4.90;99.90
43151;DHT22;28755;51.478;5.702;2022-12-18T03:47:52;-5.00;99.90
43151;DHT22;28755;51.478;5.702;2022-12-18T03:50:45;-5.00;99.90
43151;DHT22;28755;51.478;5.702;2022-12-18T03:55:51;-4.90;99.90
43151;DHT22;28755;51.478;5.702;2022-12-18T03:58:22;-4.90;99.90
43151;DHT22;28755;51.478;5.702;2022-12-18T04:00:49;-4.90;99.90
43151;DHT22;28755;51.478;5.702;2022-12-18T04:03:17;-4.90;99.90
43151;DHT22;28755;51.478;5.702;2022-12-18T04:05:45;-4.80;99.90
43151;DHT22;28755;51.478;5.702;2022-12-18T04:08:11;-4.80;99.90
43151;DHT22;28755;51.478;5.702;2022-12-18T04:10:37;-4.80;99.90
43151;DHT22;28755;51.478;5.702;2022-12-18T04:13:03;-4.90;99.90
43151;DHT22;28755;51.478;5.702;2022-12-18T04:15:29;-4.90;99.90
43151;DHT22;28755;51.478;5.702;2022-12-18T04:17:54;-4.90;99.90
43151;DHT22;28755;51.478;5.702;2022-12-18T04:20:20;-4.90;99.90
43151;DHT22;28755;51.478;5.702;2022-12-18T04:22:46;-5.00;99.90
43151;DHT22;28755;51.478;5.702;2022-12-18T04:25:12;-5.00;99.90
43151;DHT22;28755;51.478;5.702;2022-12-18T04:27:38;-5.00;99.90
43151;DHT22;28755;51.478;5.702;2022-12-18T04:30:04;-4.90;99.90
43151;DHT22;28755;51.478;5.702;2022-12-18T04:32:30;-5.00;99.90
43151;DHT22;28755;51.478;5.702;2022-12-18T04:34:55;-5.00;99.90
43151;DHT22;28755;51.478;5.702;2022-12-18T04:37:21;-4.90;99.90
43151;DHT22;28755;51.478;5.702;2022-12-18T04:39:47;-4.90;99.90
43151;DHT22;28755;51.478;5.702;2022-12-18T04:42:12;-5.00;99.90
43151;DHT22;28755;51.478;5.702;2022-12-18T04:44:38;-4.90;99.90
43151;DHT22;28755;51.478;5.702;2022-12-18T04:47:04;-5.00;99.90
43151;DHT22;28755;51.478;5.702;2022-12-18T04:49:29;-5.00;99.90
43151;DHT22;28755;51.478;5.702;2022-12-18T04:51:55;-5.00;99.90
43151;DHT22;28755;51.478;5.702;2022-12-18T04:54:21;-4.90;99.90
43151;DHT22;28755;51.478;5.702;2022-12-18T04:56:46;-5.00;99.90
43151;DHT22;28755;51.478;5.702;2022-12-18T04:59:12;-5.00;99.90
43151;DHT22;28755;51.478;5.702;2022-12-18T05:01:38;-5.00;99.90
43151;DHT22;28755;51.478;5.702;2022-12-18T05:04:04;-4.90;99.90
43151;DHT22;28755;51.478;5.702;2022-12-18T05:06:29;-4.90;99.90
43151;DHT22;28755;51.478;5.702;2022-12-18T05:08:55;-5.00;99.90
43151;DHT22;28755;51.478;5.702;2022-12-18T05:11:21;-5.00;99.90
43151;DHT22;28755;51.478;5.702;2022-12-18T05:13:46;-5.00;99.90
43151;DHT22;28755;51.478;5.702;2022-12-18T05:16:13;-5.10;99.90
43151;DHT22;28755;51.478;5.702;2022-12-18T05:18:39;-5.10;99.90
43151;DHT22;28755;51.478;5.702;2022-12-18T05:21:05;-5.10;99.90
43151;DHT22;28755;51.478;5.702;2022-12-18T05:23:31;-5.20;99.90
43151;DHT22;28755;51.478;5.702;2022-12-18T05:25:59;-5.10;99.90
43151;DHT22;28755;51.478;5.702;2022-12-18T05:28:28;-5.10;99.90
43151;DHT22;28755;51.478;5.702;2022-12-18T05:30:56;-5.10;99.90
43151;DHT22;28755;51.478;5.702;2022-12-18T05:33:23;-5.10;99.90
43151;DHT22;28755;51.478;5.702;2022-12-18T05:35:56;-5.20;99.90
43151;DHT22;28755;51.478;5.702;2022-12-18T05:38:23;-5.20;99.90
43151;DHT22;28755;51.478;5.702;2022-12-18T05:40:50;-5.20;99.90
43151;DHT22;28755;51.478;5.702;2022-12-18T05:43:16;-5.20;99.90
43151;DHT22;28755;51.478;5.702;2022-12-18T05:45:42;-5.20;99.90
43151;DHT22;28755;51.478;5.702;2022-12-18T05:48:08;-5.10;99.90
43151;DHT22;28755;51.478;5.702;2022-12-18T05:50:38;-5.10;99.90
43151;DHT22;28755;51.478;5.702;2022-12-18T05:53:04;-5.20;99.90
43151;DHT22;28755;51.478;5.702;2022-12-18T05:55:34;-5.20;99.90
43151;DHT22;28755;51.478;5.702;2022-12-18T05:58:00;-5.20;99.90
43151;DHT22;28755;51.478;5.702;2022-12-18T06:00:26;-5.20;99.90
43151;DHT22;28755;51.478;5.702;2022-12-18T06:02:51;-5.10;99.90
43151;DHT22;28755;51.478;5.702;2022-12-18T06:05:17;-5.00;99.90
43151;DHT22;28755;51.478;5.702;2022-12-18T06:07:42;-5.00;99.90
43151;DHT22;28755;51.478;5.702;2022-12-18T06:10:08;-5.00;99.90
43151;DHT22;28755;51.478;5.702;2022-12-18T06:12:33;-5.00;99.90
43151;DHT22;28755;51.478;5.702;2022-12-18T06:14:59;-5.00;99.90
43151;DHT22;28755;51.478;5.702;2022-12-18T06:17:29;-4.90;99.90
43151;DHT22;28755;51.478;5.702;2022-12-18T06:19:55;-4.90;99.90
43151;DHT22;28755;51.478;5.702;2022-12-18T06:22:21;-4.90;99.90
43151;DHT22;28755;51.478;5.702;2022-12-18T06:24:47;-4.90;99.90
43151;DHT22;28755;51.478;5.702;2022-12-18T06:27:12;-4.80;99.90
43151;DHT22;28755;51.478;5.702;2022-12-18T06:29:38;-4.90;99.90
43151;DHT22;28755;51.478;5.702;2022-12-18T06:32:03;-4.80;99.90
43151;DHT22;28755;51.478;5.702;2022-12-18T06:34:30;-4.80;99.90
43151;DHT22;28755;51.478;5.702;2022-12-18T06:36:56;-4.80;99.90
43151;DHT22;28755;51.478;5.702;2022-12-18T06:39:21;-4.80;99.90
43151;DHT22;28755;51.478;5.702;2022-12-18T06:41:47;-4.80;99.90
43151;DHT22;28755;51.478;5.702;2022-12-18T06:44:12;-4.80;99.90
43151;DHT22;28755;51.478;5.702;2022-12-18T06:46:38;-4.90;99.90
43151;DHT22;28755;51.478;5.702;2022-12-18T06:49:04;-4.90;99.90
43151;DHT22;28755;51.478;5.702;2022-12-18T06:51:29;-4.90;99.90
43151;DHT22;28755;51.478;5.702;2022-12-18T06:53:55;-4.90;99.90
43151;DHT22;28755;51.478;5.702;2022-12-18T06:56:21;-4.90;99.90
43151;DHT22;28755;51.478;5.702;2022-12-18T06:58:46;-4.80;99.90
43151;DHT22;28755;51.478;5.702;2022-12-18T07:01:12;-4.90;99.90
43151;DHT22;28755;51.478;5.702;2022-12-18T07:03:40;-4.90;99.90
43151;DHT22;28755;51.478;5.702;2022-12-18T07:06:05;-5.00;99.90
43151;DHT22;28755;51.478;5.702;2022-12-18T07:08:32;-5.00;99.90
43151;DHT22;28755;51.478;5.702;2022-12-18T07:10:57;-5.10;99.90
43151;DHT22;28755;51.478;5.702;2022-12-18T07:13:23;-5.00;99.90
43151;DHT22;28755;51.478;5.702;2022-12-18T07:15:49;-5.10;99.90
43151;DHT22;28755;51.478;5.702;2022-12-18T07:18:14;-5.10;99.90
43151;DHT22;28755;51.478;5.702;2022-12-18T07:20:40;-5.00;99.90
43151;DHT22;28755;51.478;5.702;2022-12-18T07:23:05;-5.00;99.90
43151;DHT22;28755;51.478;5.702;2022-12-18T07:25:35;-5.00;99.90
43151;DHT22;28755;51.478;5.702;2022-12-18T07:28:01;-5.00;99.90
43151;DHT22;28755;51.478;5.702;2022-12-18T07:30:26;-5.10;99.90
43151;DHT22;28755;51.478;5.702;2022-12-18T07:32:52;-5.10;99.90
43151;DHT22;28755;51.478;5.702;2022-12-18T07:35:18;-5.10;99.90
43151;DHT22;28755;51.478;5.702;2022-12-18T07:37:44;-5.00;99.90
43151;DHT22;28755;51.478;5.702;2022-12-18T07:40:10;-4.90;99.90
43151;DHT22;28755;51.478;5.702;2022-12-18T07:42:35;-4.90;99.90
43151;DHT22;28755;51.478;5.702;2022-12-18T07:45:02;-4.90;99.90
43151;DHT22;28755;51.478;5.702;2022-12-18T07:47:28;-4.90;99.90
43151;DHT22;28755;51.478;5.702;2022-12-18T07:49:54;-4.90;99.90
43151;DHT22;28755;51.478;5.702;2022-12-18T07:52:20;-4.90;99.90
43151;DHT22;28755;51.478;5.702;2022-12-18T07:54:46;-4.80;99.90
43151;DHT22;28755;51.478;5.702;2022-12-18T07:57:14;-4.60;99.90
43151;DHT22;28755;51.478;5.702;2022-12-18T07:59:40;-4.60;99.90
43151;DHT22;28755;51.478;5.702;2022-12-18T08:02:06;-4.50;99.90
43151;DHT22;28755;51.478;5.702;2022-12-18T08:04:31;-4.50;99.90
43151;DHT22;28755;51.478;5.702;2022-12-18T08:06:59;-4.40;99.90
43151;DHT22;28755;51.478;5.702;2022-12-18T08:09:25;-4.30;99.90
43151;DHT22;28755;51.478;5.702;2022-12-18T08:11:51;-4.20;99.90
43151;DHT22;28755;51.478;5.702;2022-12-18T08:14:16;-4.10;99.90
43151;DHT22;28755;51.478;5.702;2022-12-18T08:16:42;-4.00;99.90
43151;DHT22;28755;51.478;5.702;2022-12-18T08:19:07;-3.70;99.90
43151;DHT22;28755;51.478;5.702;2022-12-18T08:21:33;-3.60;99.90
43151;DHT22;28755;51.478;5.702;2022-12-18T08:24:00;-3.50;99.90
43151;DHT22;28755;51.478;5.702;2022-12-18T08:26:28;-3.40;99.90
43151;DHT22;28755;51.478;5.702;2022-12-18T08:28:55;-3.30;99.90
43151;DHT22;28755;51.478;5.702;2022-12-18T08:31:22;-2.90;99.90
43151;DHT22;28755;51.478;5.702;2022-12-18T08:33:51;-2.70;99.90
43151;DHT22;28755;51.478;5.702;2022-12-18T08:36:17;-2.50;99.90
43151;DHT22;28755;51.478;5.702;2022-12-18T08:38:43;-2.20;99.90
43151;DHT22;28755;51.478;5.702;2022-12-18T08:41:11;-2.00;99.90
43151;DHT22;28755;51.478;5.702;2022-12-18T08:43:37;-1.80;99.90
43151;DHT22;28755;51.478;5.702;2022-12-18T08:46:23;-1.60;99.90
43151;DHT22;28755;51.478;5.702;2022-12-18T08:48:50;-1.30;99.90
43151;DHT22;28755;51.478;5.702;2022-12-18T08:51:16;-1.10;99.90
43151;DHT22;28755;51.478;5.702;2022-12-18T08:53:43;-1.10;99.90
43151;DHT22;28755;51.478;5.702;2022-12-18T08:56:09;-1.10;99.90
43151;DHT22;28755;51.478;5.702;2022-12-18T08:58:35;-1.00;99.90
43151;DHT22;28755;51.478;5.702;2022-12-18T09:01:06;-0.90;99.90
43151;DHT22;28755;51.478;5.702;2022-12-18T09:03:32;-0.30;99.90
43151;DHT22;28755;51.478;5.702;2022-12-18T09:05:58;0.30;99.90
43151;DHT22;28755;51.478;5.702;2022-12-18T09:08:23;0.70;99.90
43151;DHT22;28755;51.478;5.702;2022-12-18T09:10:50;0.70;99.90
43151;DHT22;28755;51.478;5.702;2022-12-18T09:13:16;0.40;99.90
43151;DHT22;28755;51.478;5.702;2022-12-18T09:15:44;0.10;99.90
43151;DHT22;28755;51.478;5.702;2022-12-18T09:18:11;-0.10;99.90
43151;DHT22;28755;51.478;5.702;2022-12-18T09:20:37;-0.10;99.90
43151;DHT22;28755;51.478;5.702;2022-12-18T09:23:04;0.00;99.90
43151;DHT22;28755;51.478;5.702;2022-12-18T09:25:30;0.00;99.90
43151;DHT22;28755;51.478;5.702;2022-12-18T09:28:19;0.00;99.90
43151;DHT22;28755;51.478;5.702;2022-12-18T09:30:48;0.00;99.90
43151;DHT22;28755;51.478;5.702;2022-12-18T09:33:14;0.00;99.90
43151;DHT22;28755;51.478;5.702;2022-12-18T09:35:41;-0.10;99.90
43151;DHT22;28755;51.478;5.702;2022-12-18T09:38:08;-0.30;99.90
43151;DHT22;28755;51.478;5.702;2022-12-18T09:40:50;-0.40;99.90
43151;DHT22;28755;51.478;5.702;2022-12-18T09:43:24;-0.40;99.90
43151;DHT22;28755;51.478;5.702;2022-12-18T09:45:54;-0.40;99.90
43151;DHT22;28755;51.478;5.702;2022-12-18T09:48:28;-0.20;99.90
43151;DHT22;28755;51.478;5.702;2022-12-18T09:51:02;-0.50;99.90
43151;DHT22;28755;51.478;5.702;2022-12-18T09:53:32;-0.40;99.90
43151;DHT22;28755;51.478;5.702;2022-12-18T09:56:01;-0.30;99.90
43151;DHT22;28755;51.478;5.702;2022-12-18T09:58:39;-0.30;99.90
43151;DHT22;28755;51.478;5.702;2022-12-18T10:01:12;-0.10;99.90
43151;DHT22;28755;51.478;5.702;2022-12-18T10:03:39;0.10;99.90
43151;DHT22;28755;51.478;5.702;2022-12-18T10:06:15;0.10;99.90
43151;DHT22;28755;51.478;5.702;2022-12-18T10:11:48;0.60;99.90
43151;DHT22;28755;51.478;5.702;2022-12-18T10:17:40;1.10;99.90
43151;DHT22;28755;51.478;5.702;2022-12-18T10:20:26;1.10;99.90
43151;DHT22;28755;51.478;5.702;2022-12-18T10:23:04;1.00;99.90
43151;DHT22;28755;51.478;5.702;2022-12-18T10:25:52;0.90;99.90
43151;DHT22;28755;51.478;5.702;2022-12-18T10:28:19;1.00;99.90
43151;DHT22;28755;51.478;5.702;2022-12-18T10:30:45;0.80;99.90
43151;DHT22;28755;51.478;5.702;2022-12-18T10:33:17;0.70;99.90
43151;DHT22;28755;51.478;5.702;2022-12-18T10:35:44;0.50;99.90
43151;DHT22;28755;51.478;5.702;2022-12-18T10:40:53;0.20;99.90
43151;DHT22;28755;51.478;5.702;2022-12-18T10:43:38;0.30;99.90
43151;DHT22;28755;51.478;5.702;2022-12-18T10:54:01;0.70;99.90
43151;DHT22;28755;51.478;5.702;2022-12-18T10:56:30;0.70;99.90
43151;DHT22;28755;51.478;5.702;2022-12-18T10:59:02;0.70;99.90
43151;DHT22;28755;51.478;5.702;2022-12-18T11:01:45;0.80;99.90
43151;DHT22;28755;51.478;5.702;2022-12-18T11:04:19;0.70;99.90
43151;DHT22;28755;51.478;5.702;2022-12-18T11:07:05;0.80;99.90
43151;DHT22;28755;51.478;5.702;2022-12-18T11:09:36;0.70;99.90
43151;DHT22;28755;51.478;5.702;2022-12-18T11:12:16;0.50;99.90
43151;DHT22;28755;51.478;5.702;2022-12-18T11:14:42;0.30;99.90
43151;DHT22;28755;51.478;5.702;2022-12-18T11:17:19;0.30;99.90
43151;DHT22;28755;51.478;5.702;2022-12-18T11:19:58;0.20;99.90
43151;DHT22;28755;51.478;5.702;2022-12-18T11:22:27;0.20;99.90
43151;DHT22;28755;51.478;5.702;2022-12-18T11:27:29;0.10;99.90
43151;DHT22;28755;51.478;5.702;2022-12-18T11:32:47;0.10;99.90
43151;DHT22;28755;51.478;5.702;2022-12-18T11:38:17;0.20;99.90
43151;DHT22;28755;51.478;5.702;2022-12-18T11:40:47;0.30;99.90
43151;DHT22;28755;51.478;5.702;2022-12-18T11:43:37;0.30;99.90
43151;DHT22;28755;51.478;5.702;2022-12-18T11:46:12;0.40;99.90
43151;DHT22;28755;51.478;5.702;2022-12-18T11:51:34;0.40;99.90
43151;DHT22;28755;51.478;5.702;2022-12-18T11:54:12;0.40;99.90
43151;DHT22;28755;51.478;5.702;2022-12-18T11:56:53;0.30;99.90
43151;DHT22;28755;51.478;5.702;2022-12-18T12:10:22;0.60;99.90
43151;DHT22;28755;51.478;5.702;2022-12-18T12:13:08;0.60;99.90
43151;DHT22;28755;51.478;5.702;2022-12-18T12:16:00;0.70;99.90
43151;DHT22;28755;51.478;5.702;2022-12-18T12:18:49;0.70;99.90
43151;DHT22;28755;51.478;5.702;2022-12-18T12:21:33;0.70;99.90
43151;DHT22;28755;51.478;5.702;2022-12-18T12:27:03;0.60;99.90
43151;DHT22;28755;51.478;5.702;2022-12-18T12:35:09;0.60;99.90
43151;DHT22;28755;51.478;5.702;2022-12-18T12:38:02;0.60;99.90
43151;DHT22;28755;51.478;5.702;2022-12-18T12:40:33;0.60;99.90
43151;DHT22;28755;51.478;5.702;2022-12-18T12:43:01;0.70;99.90
43151;DHT22;28755;51.478;5.702;2022-12-18T12:51:25;0.80;99.90
43151;DHT22;28755;51.478;5.702;2022-12-18T12:53:52;0.80;99.90
43151;DHT22;28755;51.478;5.702;2022-12-18T12:56:20;0.80;99.90
43151;DHT22;28755;51.478;5.702;2022-12-18T12:58:55;0.80;99.90
43151;DHT22;28755;51.478;5.702;2022-12-18T13:01:59;0.80;99.90
43151;DHT22;28755;51.478;5.702;2022-12-18T13:12:53;0.90;99.90
43151;DHT22;28755;51.478;5.702;2022-12-18T13:15:25;0.90;99.90
43151;DHT22;28755;51.478;5.702;2022-12-18T13:20:47;0.90;99.90
43151;DHT22;28755;51.478;5.702;2022-12-18T13:28:48;0.80;99.90
43151;DHT22;28755;51.478;5.702;2022-12-18T13:31:08;0.80;99.90
43151;DHT22;28755;51.478;5.702;2022-12-18T13:33:43;0.70;99.90
43151;DHT22;28755;51.478;5.702;2022-12-18T13:38:42;0.80;99.90
43151;DHT22;28755;51.478;5.702;2022-12-18T13:43:54;0.80;99.90
43151;DHT22;28755;51.478;5.702;2022-12-18T13:46:48;0.80;99.90
43151;DHT22;28755;51.478;5.702;2022-12-18T13:51:50;0.80;99.90
43151;DHT22;28755;51.478;5.702;2022-12-18T13:54:39;0.80;99.90
43151;DHT22;28755;51.478;5.702;2022-12-18T13:57:24;0.80;99.90
43151;DHT22;28755;51.478;5.702;2022-12-18T13:59:50;0.80;99.90
43151;DHT22;28755;51.478;5.702;2022-12-18T14:02:20;0.90;99.90
43151;DHT22;28755;51.478;5.702;2022-12-18T14:04:46;0.90;99.90
43151;DHT22;28755;51.478;5.702;2022-12-18T14:07:17;0.90;99.90
43151;DHT22;28755;51.478;5.702;2022-12-18T14:09:52;0.90;99.90
43151;DHT22;28755;51.478;5.702;2022-12-18T14:12:31;0.90;99.90
43151;DHT22;28755;51.478;5.702;2022-12-18T14:17:52;0.90;99.90
43151;DHT22;28755;51.478;5.702;2022-12-18T14:20:18;0.90;99.90
43151;DHT22;28755;51.478;5.702;2022-12-18T14:22:45;0.90;99.90
43151;DHT22;28755;51.478;5.702;2022-12-18T14:27:48;0.90;99.90
43151;DHT22;28755;51.478;5.702;2022-12-18T14:30:28;1.00;99.90
43151;DHT22;28755;51.478;5.702;2022-12-18T14:35:27;1.00;99.90
43151;DHT22;28755;51.478;5.702;2022-12-18T14:37:52;1.00;99.90
43151;DHT22;28755;51.478;5.702;2022-12-18T14:40:18;0.90;99.90
43151;DHT22;28755;51.478;5.702;2022-12-18T14:42:44;0.90;99.90
43151;DHT22;28755;51.478;5.702;2022-12-18T14:45:33;0.90;99.90
43151;DHT22;28755;51.478;5.702;2022-12-18T14:47:59;0.90;99.90
43151;DHT22;28755;51.478;5.702;2022-12-18T14:50:25;0.90;99.90
43151;DHT22;28755;51.478;5.702;2022-12-18T14:52:51;0.90;99.90
43151;DHT22;28755;51.478;5.702;2022-12-18T14:55:19;0.90;99.90
43151;DHT22;28755;51.478;5.702;2022-12-18T14:57:45;0.80;99.90
43151;DHT22;28755;51.478;5.702;2022-12-18T15:00:17;0.80;99.90
43151;DHT22;28755;51.478;5.702;2022-12-18T15:02:46;0.80;99.90
43151;DHT22;28755;51.478;5.702;2022-12-18T15:07:50;0.80;99.90
43151;DHT22;28755;51.478;5.702;2022-12-18T15:10:21;0.80;99.90
43151;DHT22;28755;51.478;5.702;2022-12-18T15:20:54;0.70;99.90
43151;DHT22;28755;51.478;5.702;2022-12-18T15:23:26;0.70;99.90
43151;DHT22;28755;51.478;5.702;2022-12-18T15:26:00;0.80;99.90
43151;DHT22;28755;51.478;5.702;2022-12-18T15:28:45;0.80;99.90
43151;DHT22;28755;51.478;5.702;2022-12-18T15:36:09;0.80;99.90
43151;DHT22;28755;51.478;5.702;2022-12-18T15:38:35;0.80;99.90
43151;DHT22;28755;51.478;5.702;2022-12-18T15:41:02;0.70;99.90
43151;DHT22;28755;51.478;5.702;2022-12-18T15:43:28;0.70;99.90
43151;DHT22;28755;51.478;5.702;2022-12-18T15:46:12;0.80;99.90
43151;DHT22;28755;51.478;5.702;2022-12-18T15:48:49;0.80;99.90
43151;DHT22;28755;51.478;5.702;2022-12-18T15:51:35;0.80;99.90
43151;DHT22;28755;51.478;5.702;2022-12-18T15:54:04;0.80;99.90
43151;DHT22;28755;51.478;5.702;2022-12-18T15:56:30;0.80;99.90
43151;DHT22;28755;51.478;5.702;2022-12-18T15:59:19;0.80;99.90
43151;DHT22;28755;51.478;5.702;2022-12-18T16:01:47;0.80;99.90
43151;DHT22;28755;51.478;5.702;2022-12-18T16:04:14;0.70;99.90
43151;DHT22;28755;51.478;5.702;2022-12-18T16:06:40;0.80;99.90
43151;DHT22;28755;51.478;5.702;2022-12-18T16:09:07;0.70;99.90
43151;DHT22;28755;51.478;5.702;2022-12-18T16:11:34;0.70;99.90
43151;DHT22;28755;51.478;5.702;2022-12-18T16:14:28;0.80;99.90
43151;DHT22;28755;51.478;5.702;2022-12-18T16:16:57;0.80;99.90
43151;DHT22;28755;51.478;5.702;2022-12-18T16:19:23;0.70;99.90
43151;DHT22;28755;51.478;5.702;2022-12-18T16:21:51;0.70;99.90
43151;DHT22;28755;51.478;5.702;2022-12-18T16:24:19;0.70;99.90
43151;DHT22;28755;51.478;5.702;2022-12-18T16:26:45;0.70;99.90
43151;DHT22;28755;51.478;5.702;2022-12-18T16:29:10;0.70;99.90
43151;DHT22;28755;51.478;5.702;2022-12-18T16:31:37;0.70;99.90
43151;DHT22;28755;51.478;5.702;2022-12-18T16:34:22;0.70;99.90
43151;DHT22;28755;51.478;5.702;2022-12-18T16:36:48;0.70;99.90
43151;DHT22;28755;51.478;5.702;2022-12-18T16:39:15;0.70;99.90
43151;DHT22;28755;51.478;5.702;2022-12-18T16:41:40;0.70;99.90
43151;DHT22;28755;51.478;5.702;2022-12-18T16:44:06;0.70;99.90
43151;DHT22;28755;51.478;5.702;2022-12-18T16:46:31;0.60;99.90
43151;DHT22;28755;51.478;5.702;2022-12-18T16:48:58;0.60;99.90
43151;DHT22;28755;51.478;5.702;2022-12-18T16:51:25;0.70;99.90
43151;DHT22;28755;51.478;5.702;2022-12-18T16:53:51;0.70;99.90
43151;DHT22;28755;51.478;5.702;2022-12-18T16:56:17;0.70;99.90
43151;DHT22;28755;51.478;5.702;2022-12-18T16:58:43;0.70;99.90
43151;DHT22;28755;51.478;5.702;2022-12-18T17:01:10;0.60;99.90
43151;DHT22;28755;51.478;5.702;2022-12-18T17:03:36;0.60;99.90
43151;DHT22;28755;51.478;5.702;2022-12-18T17:06:03;0.60;99.90
43151;DHT22;28755;51.478;5.702;2022-12-18T17:08:29;0.70;99.90
43151;DHT22;28755;51.478;5.702;2022-12-18T17:10:54;0.70;99.90
43151;DHT22;28755;51.478;5.702;2022-12-18T17:13:20;0.70;99.90
43151;DHT22;28755;51.478;5.702;2022-12-18T17:15:45;0.60;99.90
43151;DHT22;28755;51.478;5.702;2022-12-18T17:18:11;0.60;99.90
43151;DHT22;28755;51.478;5.702;2022-12-18T17:20:36;0.60;99.90
43151;DHT22;28755;51.478;5.702;2022-12-18T17:23:02;0.60;99.90
43151;DHT22;28755;51.478;5.702;2022-12-18T17:25:27;0.70;99.90
43151;DHT22;28755;51.478;5.702;2022-12-18T17:27:53;0.70;99.90
43151;DHT22;28755;51.478;5.702;2022-12-18T17:30:19;0.70;99.90
43151;DHT22;28755;51.478;5.702;2022-12-18T17:32:44;0.70;99.90
43151;DHT22;28755;51.478;5.702;2022-12-18T17:35:10;0.70;99.90
43151;DHT22;28755;51.478;5.702;2022-12-18T17:37:35;0.70;99.90
43151;DHT22;28755;51.478;5.702;2022-12-18T17:40:01;0.70;99.90
43151;DHT22;28755;51.478;5.702;2022-12-18T17:42:26;0.70;99.90
43151;DHT22;28755;51.478;5.702;2022-12-18T17:44:52;0.70;99.90
43151;DHT22;28755;51.478;5.702;2022-12-18T17:47:18;0.60;99.90
43151;DHT22;28755;51.478;5.702;2022-12-18T17:49:43;0.70;99.90